FAWB/PRY METAR and TAF weather

Enter ICAO airport designator
Station Type Date Time Source
FAWB METAR 2020/07/09 08:00 UTC NOAA

FAWB 090800Z AUTO 04010KT //// // ////// 15/08 Q1026


Station Type Date Time Source
FAWB Decoded METAR 2020/07/09 08:00 UTC NOAA

Wonderboom / Pretoria, South Africa (FAWB) 25-39S 028-13E
Jul 09, 2020 - 04:00 AM EDT / 2020.07.09 0800 UTC
Wind: from the NE (040 degrees) at 12 MPH (10 KT):0
Temperature: 59 F (15 C)
Dew Point: 46 F (8 C)
Relative Humidity: 62%
Pressure (altimeter): 30.30 in. Hg (1026 hPa)
ob: FAWB 090800Z AUTO 04010KT //// // ////// 15/08 Q1026
cycle: 8

Station Type Date Time Source
FAWB TAF 2019/01/10 10:00 UTC NOAA

TAF FAWB 101000Z 1010/1018 30007KT CAVOK
BECMG 1014/1016 SCT035 PROB30
TEMPO 1016/1018 -TSRA FEW040CB TX31/1013Z TN26/1018Z

Example: see airport list